Time;durP1;ratioP1;P1;durP2;ratioP2;P2;SDS_P1;SDS_P2;PMS_P1;PMS_P2;Temp;Humidity;BMP_temperature;BMP_pressure;BME280_temperature;BME280_humidity;BME280_pressure;Samples;Min_cycle;Max_cycle;Signal;HPM_P1;HPM_P2
2021/04/23 00:01:19;;;;;;;8.80;5.87;;;4.00;99.10;;;4.91;60.79;98648.78;5207959;28;20204;-59
2021/04/23 00:03:54;;;;;;;7.57;5.77;;;4.00;99.40;;;4.80;60.90;98657.94;5207694;28;20193;-58
2021/04/23 00:06:31;;;;;;;5.70;5.03;;;3.80;99.70;;;4.82;61.27;98658.09;5207769;28;20216;-59
2021/04/23 00:09:11;;;;;;;6.50;5.40;;;3.90;99.90;;;4.73;61.02;98660.66;5206260;28;20203;-57
2021/04/23 00:11:47;;;;;;;6.43;5.20;;;3.80;99.60;;;4.68;61.47;98659.34;5208051;28;20202;-54
2021/04/23 00:14:23;;;;;;;7.40;5.23;;;3.70;99.90;;;4.66;61.64;98654.13;5207921;28;20221;-57
2021/04/23 00:16:56;;;;;;;6.90;5.93;;;3.80;99.90;;;4.59;61.53;98661.03;5205958;28;20196;-58
2021/04/23 00:19:29;;;;;;;7.10;4.77;;;3.70;99.90;;;4.51;61.81;98657.78;5207702;28;20195;-58
2021/04/23 00:22:01;;;;;;;6.63;5.43;;;3.60;99.90;;;4.43;61.56;98663.75;5204559;28;20292;-58
2021/04/23 00:24:34;;;;;;;6.30;4.60;;;3.50;99.70;;;4.39;61.46;98667.66;5196542;28;20302;-56
2021/04/23 00:27:07;;;;;;;6.47;5.50;;;3.40;99.90;;;4.37;61.71;98664.06;5207500;28;20221;-57
2021/04/23 00:29:39;;;;;;;7.80;5.40;;;3.40;99.90;;;4.26;62.59;98652.06;5207163;28;20212;-55
2021/04/23 00:35:02;;;;;;;7.53;5.20;;;3.40;99.90;;;4.30;62.54;98654.16;5207740;28;20568;-59
2021/04/23 00:37:34;;;;;;;6.43;5.80;;;3.40;99.90;;;4.31;61.75;98657.56;5204855;28;20190;-55
2021/04/23 00:40:08;;;;;;;8.43;5.60;;;3.40;99.90;;;4.23;61.94;98661.88;5187327;28;20207;-57
2021/04/23 00:42:40;;;;;;;6.30;5.50;;;3.40;99.90;;;4.32;61.77;98665.31;5206932;28;20207;-56
2021/04/23 00:45:17;;;;;;;6.27;5.67;;;3.40;99.90;;;4.21;61.86;98671.00;5207030;28;20218;-57
2021/04/23 00:47:51;;;;;;;8.07;6.07;;;3.40;99.90;;;4.26;62.13;98669.75;5205841;28;20229;-59
2021/04/23 00:50:33;;;;;;;8.47;5.53;;;3.40;99.90;;;4.21;62.12;98671.00;5206149;28;20579;-58
2021/04/23 00:53:07;;;;;;;6.83;5.90;;;3.30;99.90;;;4.49;61.45;98670.31;5207447;28;20689;-58
2021/04/23 00:55:40;;;;;;;5.77;5.00;;;3.40;99.90;;;4.17;62.03;98674.84;5206662;28;20227;-57
2021/04/23 00:58:15;;;;;;;8.03;5.80;;;3.20;99.90;;;3.99;63.18;98663.88;5206865;28;20202;-59
2021/04/23 01:00:51;;;;;;;6.63;5.60;;;3.10;99.90;;;4.00;63.77;98680.84;5206379;28;20197;-58
2021/04/23 01:03:25;;;;;;;9.40;5.47;;;3.20;99.90;;;3.78;63.13;98675.38;5207420;28;20208;-56
2021/04/23 01:05:58;;;;;;;7.67;5.87;;;2.90;99.90;;;3.88;63.16;98668.66;5194756;28;20228;-58
2021/04/23 01:08:31;;;;;;;6.97;5.50;;;2.90;99.90;;;3.72;63.75;98676.41;5206004;28;20195;-59
2021/04/23 01:11:04;;;;;;;6.20;5.60;;;2.90;99.90;;;3.68;63.76;98664.22;5206631;28;20563;-59
2021/04/23 01:13:38;;;;;;;7.20;5.93;;;2.80;99.90;;;3.62;64.25;98669.56;5206611;28;20199;-56
2021/04/23 01:16:13;;;;;;;6.73;5.90;;;2.70;99.90;;;3.64;64.46;98673.16;5206689;28;20573;-58
2021/04/23 01:18:45;;;;;;;7.40;5.70;;;2.80;99.90;;;3.65;64.35;98671.50;5206126;28;20204;-56
2021/04/23 01:21:23;;;;;;;7.30;5.40;;;2.80;99.90;;;3.67;64.53;98668.41;5190872;28;20561;-58
2021/04/23 01:23:57;;;;;;;5.87;5.27;;;2.80;99.90;;;3.62;64.30;98669.56;5196296;28;20190;-54
2021/04/23 01:26:33;;;;;;;6.83;5.50;;;2.60;99.90;;;3.54;64.50;98665.41;5191301;28;20220;-58
2021/04/23 01:29:08;;;;;;;6.40;5.00;;;2.70;99.90;;;3.51;64.60;98671.06;5205695;28;20215;-58
2021/04/23 01:31:43;;;;;;;7.87;6.00;;;2.60;99.90;;;3.55;65.26;98667.22;5198748;28;20206;-57
2021/04/23 01:34:22;;;;;;;8.10;5.40;;;2.60;99.90;;;3.58;65.36;98667.50;5206533;28;20233;-58
2021/04/23 01:36:55;;;;;;;6.00;5.43;;;2.50;99.90;;;3.51;64.75;98666.00;5206338;28;20194;-58
2021/04/23 01:39:30;;;;;;;7.60;5.93;;;2.60;99.90;;;3.45;65.20;98673.00;5190802;28;20194;-58
2021/04/23 01:42:04;;;;;;;5.60;5.10;;;2.60;99.90;;;3.46;65.70;98677.28;5206416;28;20273;-58
2021/04/23 01:44:37;;;;;;;8.20;5.93;;;2.50;99.90;;;3.44;65.46;98683.84;5200598;28;20211;-57
2021/04/23 01:47:10;;;;;;;5.97;5.13;;;2.50;99.90;;;3.38;65.57;98680.72;5205921;28;20719;-58
2021/04/23 01:49:42;;;;;;;7.50;5.40;;;2.40;99.90;;;3.39;65.66;98687.56;5206080;28;20296;-57
2021/04/23 01:52:18;;;;;;;6.77;5.13;;;2.40;99.90;;;3.39;65.42;98685.91;5204728;28;20204;-58
2021/04/23 01:54:51;;;;;;;7.47;5.60;;;2.40;99.90;;;3.36;65.57;98688.16;5205241;28;20215;-55
2021/04/23 01:57:23;;;;;;;7.53;5.30;;;2.50;99.90;;;3.36;65.71;98680.56;5205255;28;20194;-59
2021/04/23 01:59:55;;;;;;;6.97;5.63;;;2.40;99.90;;;3.22;65.36;98690.06;5205951;28;20209;-58
2021/04/23 02:02:27;;;;;;;7.37;5.60;;;2.30;99.90;;;3.16;65.95;98685.31;5205417;28;20197;-58
2021/04/23 02:04:59;;;;;;;7.83;5.80;;;2.30;99.90;;;3.20;66.26;98691.53;5227600;22;20573;-59
2021/04/23 02:07:33;;;;;;;6.80;5.77;;;2.30;99.90;;;3.25;65.75;98696.31;5246440;28;20218;-59
2021/04/23 02:10:12;;;;;;;7.50;6.07;;;2.30;99.90;;;3.31;66.68;98694.38;5247154;28;20208;-56
2021/04/23 02:12:45;;;;;;;6.80;6.20;;;2.40;99.90;;;3.23;65.95;98695.25;5244878;28;20212;-58
2021/04/23 02:15:19;;;;;;;6.50;5.87;;;2.40;99.90;;;3.20;66.79;98694.06;5251941;28;20274;-59
2021/04/23 02:17:51;;;;;;;6.20;5.60;;;2.30;99.90;;;3.23;66.62;98691.84;5234635;28;20191;-59
2021/04/23 02:20:29;;;;;;;6.53;5.93;;;2.30;99.90;;;3.09;66.62;98698.97;5244013;28;20206;-55
2021/04/23 02:23:09;;;;;;;8.23;6.43;;;2.20;99.90;;;2.99;66.47;98691.22;5227652;28;20193;-59
2021/04/23 02:25:41;;;;;;;9.37;6.10;;;2.10;99.90;;;2.87;65.77;98690.00;5225645;28;20236;-58
2021/04/23 02:28:13;;;;;;;6.73;6.03;;;2.00;99.90;;;2.86;66.40;98699.19;5232935;28;20204;-59
2021/04/23 02:30:49;;;;;;;9.80;6.70;;;2.00;99.90;;;2.89;67.30;98699.50;5242940;28;20210;-59
2021/04/23 02:33:22;;;;;;;8.67;6.27;;;2.10;99.90;;;3.01;66.48;98701.47;5240779;28;20196;-59
2021/04/23 02:35:57;;;;;;;7.50;6.03;;;2.20;99.90;;;3.02;66.80;98701.59;5242947;28;20300;-58
2021/04/23 02:38:30;;;;;;;7.33;6.20;;;2.20;99.90;;;3.05;67.35;98706.97;5233632;28;20295;-58
2021/04/23 02:41:04;;;;;;;8.17;6.60;;;2.30;99.90;;;3.05;67.97;98706.97;5226008;28;20195;-59
2021/04/23 02:43:39;;;;;;;5.97;5.30;;;2.30;99.90;;;3.12;66.62;98706.84;5227676;28;20203;-59
2021/04/23 02:46:12;;;;;;;9.17;6.40;;;2.30;99.90;;;3.07;66.81;98705.50;5237514;28;20220;-58
2021/04/23 02:48:45;;;;;;;8.93;6.97;;;2.20;99.90;;;3.04;67.24;98710.25;5226454;28;20636;-59
2021/04/23 02:51:27;;;;;;;7.47;6.07;;;2.10;99.90;;;3.00;67.40;98705.59;5225933;28;20304;-57
2021/04/23 02:54:01;;;;;;;9.27;6.47;;;2.10;99.90;;;2.91;67.73;98709.75;5231043;28;20212;-59
2021/04/23 02:56:34;;;;;;;10.90;6.03;;;2.10;99.90;;;2.86;67.30;98706.78;5225582;28;20231;-58
2021/04/23 02:59:08;;;;;;;7.10;6.40;;;2.00;99.90;;;2.74;67.39;98700.47;5228357;28;20196;-59
2021/04/23 03:01:45;;;;;;;8.80;6.40;;;1.90;99.90;;;2.73;67.03;98706.28;5225690;28;20212;-58
2021/04/23 03:04:18;;;;;;;6.67;6.07;;;1.80;99.90;;;2.69;67.55;98705.09;5241146;28;20201;-59
2021/04/23 03:06:50;;;;;;;9.30;6.37;;;1.90;99.90;;;2.69;68.33;98709.25;5225451;28;20224;-59
2021/04/23 03:09:23;;;;;;;6.47;5.80;;;1.90;99.90;;;2.68;68.01;98712.47;5224940;28;20206;-59
2021/04/23 03:11:56;;;;;;;9.30;6.17;;;1.80;99.90;;;2.67;68.50;98714.13;5226045;28;20572;-58
2021/04/23 03:14:28;;;;;;;7.87;6.30;;;1.90;99.90;;;2.71;67.71;98705.22;5233737;28;20227;-57
2021/04/23 03:17:00;;;;;;;8.40;6.83;;;1.90;99.90;;;2.66;67.30;98709.81;5239971;28;20193;-59
2021/04/23 03:19:32;;;;;;;8.37;6.80;;;1.90;99.90;;;2.62;67.99;98707.72;5225217;28;20197;-59
2021/04/23 03:22:04;;;;;;;8.03;6.50;;;1.80;99.90;;;2.63;68.15;98709.50;5232031;28;20192;-58
2021/04/23 03:24:37;;;;;;;6.90;5.87;;;1.80;99.90;;;2.62;68.63;98712.75;5227331;28;20225;-58
2021/04/23 03:27:09;;;;;;;7.57;6.47;;;1.80;99.90;;;2.67;67.72;98714.13;5229812;28;20213;-58
2021/04/23 03:29:42;;;;;;;7.83;6.70;;;1.80;99.90;;;2.71;67.90;98717.84;5239320;28;20197;-58
2021/04/23 03:32:14;;;;;;;8.90;6.57;;;1.80;99.90;;;2.73;67.77;98715.47;5232026;28;20197;-59
2021/04/23 03:34:46;;;;;;;7.90;6.17;;;1.80;99.90;;;2.67;68.16;98714.13;5229564;28;20224;-57
2021/04/23 03:37:19;;;;;;;7.70;6.57;;;1.80;99.90;;;2.67;67.94;98719.16;5229564;28;20203;-58
2021/04/23 03:39:51;;;;;;;7.37;6.43;;;1.80;99.90;;;2.59;68.05;98711.56;5229115;28;20673;-59
2021/04/23 03:42:23;;;;;;;7.20;6.30;;;1.80;99.90;;;2.60;68.25;98710.81;5229629;28;20204;-60
2021/04/23 03:44:55;;;;;;;9.87;6.83;;;1.80;99.90;;;2.60;68.84;98714.22;5233473;28;20214;-58
2021/04/23 03:47:28;;;;;;;8.70;6.83;;;1.70;99.90;;;2.58;68.45;98715.72;5230648;28;20225;-59
2021/04/23 03:50:00;;;;;;;7.07;6.03;;;1.70;99.90;;;2.57;69.05;98718.97;5250095;28;20211;-59
2021/04/23 03:52:32;;;;;;;7.27;6.60;;;1.70;99.90;;;2.57;68.71;98720.59;5239829;28;20204;-59
2021/04/23 03:55:12;;;;;;;8.07;6.87;;;1.70;99.90;;;2.58;68.43;98714.84;5229179;28;20706;-59
2021/04/23 03:57:44;;;;;;;8.77;7.33;;;1.70;99.90;;;2.57;68.60;98723.13;5231998;28;20215;-58
2021/04/23 04:00:24;;;;;;;10.47;7.20;;;1.70;99.90;;;2.56;68.96;98722.22;5235113;28;20193;-58
2021/04/23 04:02:57;;;;;;;7.90;6.47;;;1.70;99.90;;;2.39;68.90;98737.28;5233083;28;20194;-57
2021/04/23 04:05:29;;;;;;;8.10;7.30;;;1.60;99.90;;;2.38;68.52;98740.56;5248249;28;20232;-58
2021/04/23 04:08:01;;;;;;;7.47;6.53;;;1.60;99.90;;;2.31;69.19;98740.63;5229029;28;20322;-58
2021/04/23 04:10:36;;;;;;;7.77;6.97;;;1.40;99.90;;;2.33;68.46;98749.28;5228588;28;20193;-58
2021/04/23 04:13:09;;;;;;;7.87;7.07;;;1.50;99.90;;;2.29;69.22;98739.59;5231235;28;20197;-58
2021/04/23 04:15:41;;;;;;;9.80;7.40;;;1.50;99.90;;;2.30;69.25;98751.47;5242679;28;20308;-56
2021/04/23 04:18:13;;;;;;;11.23;7.23;;;1.50;99.90;;;2.34;69.66;98751.03;5233509;28;20287;-59
2021/04/23 04:20:48;;;;;;;8.27;6.67;;;1.50;99.90;;;2.41;69.58;98756.88;5236763;28;20285;-58
2021/04/23 04:23:23;;;;;;;8.47;6.57;;;1.50;99.90;;;2.42;69.68;98758.66;5235295;28;20225;-57
2021/04/23 04:25:59;;;;;;;10.27;7.03;;;1.50;99.90;;;2.33;69.88;98760.25;5243408;28;20218;-58
2021/04/23 04:28:32;;;;;;;7.47;6.70;;;1.40;99.90;;;2.28;70.00;98758.88;5235889;28;20206;-57
2021/04/23 04:31:05;;;;;;;8.23;6.37;;;1.40;99.90;;;2.22;69.32;98759.13;5228432;28;20567;-58
2021/04/23 04:33:52;;;;;;;9.47;6.70;;;1.40;99.90;;;2.20;69.96;98755.56;5229720;28;20545;-57
2021/04/23 04:36:24;;;;;;;8.03;6.93;;;1.30;99.90;;;2.28;70.30;98763.03;5228094;28;20333;-58
2021/04/23 04:38:56;;;;;;;12.30;8.47;;;1.40;99.90;;;2.37;69.83;98766.50;5227761;28;20197;-57
2021/04/23 04:41:29;;;;;;;9.23;8.10;;;1.50;99.90;;;2.37;69.19;98769.00;5228451;28;20576;-58
2021/04/23 04:44:01;;;;;;;9.97;6.43;;;1.40;99.90;;;2.35;69.75;98776.44;5231648;28;20197;-57
2021/04/23 04:46:34;;;;;;;8.93;6.97;;;1.40;99.90;;;2.44;69.46;98779.00;5237090;28;20741;-56
2021/04/23 04:49:06;;;;;;;8.20;6.23;;;1.50;99.90;;;2.47;70.06;98767.59;5233292;28;20636;-58
2021/04/23 04:51:38;;;;;;;7.70;6.90;;;1.50;99.90;;;2.51;68.79;98771.31;5227696;28;20199;-58
2021/04/23 04:54:10;;;;;;;8.53;7.57;;;1.60;99.90;;;2.63;68.81;98765.03;5229860;28;20201;-58
2021/04/23 04:56:43;;;;;;;7.27;6.57;;;1.50;99.90;;;2.53;68.88;98774.03;5230450;28;20192;-58
2021/04/23 04:59:15;;;;;;;8.20;6.97;;;1.50;99.90;;;2.58;68.69;98775.38;5233926;28;20207;-57
2021/04/23 05:01:47;;;;;;;8.53;6.90;;;1.50;99.90;;;2.46;68.86;98780.03;5233055;28;20199;-58
2021/04/23 05:04:19;;;;;;;7.77;6.37;;;1.50;99.90;;;2.47;69.15;98781.84;5227458;28;20207;-57
2021/04/23 05:06:51;;;;;;;8.20;6.90;;;1.50;99.90;;;2.50;69.55;98787.22;5226759;28;20220;-58
2021/04/23 05:09:23;;;;;;;8.20;7.50;;;1.60;99.90;;;2.57;69.68;98788.72;5227203;28;20199;-58
2021/04/23 05:11:56;;;;;;;10.23;7.47;;;1.70;99.90;;;2.45;69.70;98788.34;5226633;28;20197;-58
2021/04/23 05:14:28;;;;;;;9.13;6.73;;;1.70;99.90;;;2.54;69.16;98788.41;5234049;28;20223;-54
2021/04/23 05:17:00;;;;;;;8.90;7.10;;;1.70;99.90;;;2.59;69.87;98795.72;5226678;28;20195;-58
2021/04/23 05:19:32;;;;;;;11.50;8.03;;;1.80;99.90;;;2.77;69.11;98788.25;5220490;28;20673;-58
2021/04/23 05:22:04;;;;;;;9.57;7.97;;;1.80;99.90;;;3.08;68.54;98803.22;5211162;28;20189;-59
2021/04/23 05:24:36;;;;;;;7.93;7.13;;;2.00;99.90;;;3.52;67.46;98799.22;5228378;28;20228;-58
2021/04/23 05:27:09;;;;;;;9.93;7.57;;;2.30;99.90;;;4.06;65.63;98796.88;5226623;28;20227;-57
2021/04/23 05:29:41;;;;;;;9.90;7.73;;;2.80;99.90;;;4.64;63.54;98791.47;5232505;28;20217;-59
2021/04/23 05:32:13;;;;;;;8.83;7.17;;;3.30;99.90;;;5.15;62.63;98794.56;5227195;28;20671;-59
2021/04/23 05:34:46;;;;;;;7.77;6.40;;;3.70;99.90;;;5.75;60.37;98802.59;5228009;28;20558;-60
2021/04/23 05:37:18;;;;;;;8.73;7.47;;;4.00;99.90;;;6.23;58.99;98795.97;5226728;28;20279;-60
2021/04/23 05:39:50;;;;;;;7.77;7.00;;;4.40;99.90;;;6.68;57.06;98795.72;5226461;28;20292;-59
2021/04/23 05:42:24;;;;;;;9.00;7.47;;;4.60;99.90;;;7.11;55.51;98807.03;5226804;28;20201;-60
2021/04/23 05:44:56;;;;;;;8.73;7.27;;;4.80;99.90;;;7.34;54.17;98801.38;5240019;28;20720;-57
2021/04/23 05:47:28;;;;;;;7.70;6.73;;;5.30;99.90;;;7.69;53.19;98808.50;5227495;28;20217;-59
2021/04/23 05:50:00;;;;;;;9.17;6.97;;;5.60;99.30;;;8.00;52.99;98803.44;5243545;28;20203;-56
2021/04/23 05:52:32;;;;;;;8.40;6.57;;;6.00;99.10;;;8.25;51.78;98806.34;5226888;28;20208;-60
2021/04/23 05:55:05;;;;;;;9.07;6.57;;;6.00;98.10;;;8.62;50.85;98804.22;5226301;28;20219;-60
2021/04/23 05:57:39;;;;;;;10.50;7.33;;;6.20;98.10;;;8.55;50.49;98802.84;5230194;28;20189;-59
2021/04/23 06:00:15;;;;;;;8.13;5.93;;;6.40;97.10;;;8.83;49.94;98811.03;5225850;28;20204;-60
2021/04/23 06:02:47;;;;;;;9.47;7.67;;;6.50;97.20;;;9.18;49.13;98806.13;5228794;28;20188;-59
2021/04/23 06:05:22;;;;;;;7.63;6.40;;;6.60;96.80;;;9.38;47.98;98817.88;5228685;28;20595;-57
2021/04/23 06:07:55;;;;;;;8.30;6.40;;;6.80;96.60;;;9.75;46.64;98818.13;5225455;28;20221;-59
2021/04/23 06:10:28;;;;;;;6.93;5.97;;;7.10;95.60;;;9.95;46.70;98811.97;5225959;28;20204;-59
2021/04/23 06:13:01;;;;;;;7.60;6.33;;;7.10;95.90;;;10.01;46.21;98806.41;5229639;28;20201;-59
2021/04/23 06:15:34;;;;;;;9.67;6.73;;;7.30;95.30;;;10.28;45.28;98816.16;5234890;28;20215;-60
2021/04/23 06:18:06;;;;;;;8.20;6.27;;;7.50;94.70;;;10.78;45.54;98824.03;5231362;28;20190;-59
2021/04/23 06:20:40;;;;;;;7.60;6.63;;;7.70;94.80;;;10.98;43.95;98822.03;5226276;28;20193;-59
2021/04/23 06:23:13;;;;;;;7.63;6.50;;;8.00;94.00;;;11.09;43.92;98818.56;5225551;28;20204;-60
2021/04/23 06:25:45;;;;;;;10.45;7.35;;;8.10;93.30;;;11.35;44.40;98820.38;5233858;28;20221;-59
2021/04/23 06:28:18;;;;;;;11.32;6.97;;;8.40;93.90;;;11.57;43.35;98816.75;5233120;28;20226;-58
2021/04/23 06:30:51;;;;;;;10.18;6.72;;;8.70;92.70;;;12.13;42.40;98818.06;5226665;28;20193;-60
2021/04/23 06:33:26;;;;;;;9.65;6.63;;;9.10;92.30;;;12.72;40.81;98814.16;5221228;28;20196;-61
2021/04/23 06:35:58;;;;;;;10.30;7.22;;;9.70;91.00;;;12.82;40.63;98816.53;5223753;28;20224;-59
2021/04/23 06:38:30;;;;;;;17.42;10.27;;;9.80;90.80;;;12.99;39.79;98815.91;5223609;28;20197;-61
2021/04/23 06:41:04;;;;;;;10.60;7.40;;;9.90;90.60;;;13.33;39.12;98815.44;5222573;28;20204;-58
2021/04/23 06:43:36;;;;;;;11.10;6.90;;;10.20;89.60;;;13.21;40.27;98819.78;5231375;28;20569;-59
2021/04/23 06:46:09;;;;;;;7.95;6.80;;;10.30;90.10;;;13.60;38.69;98807.69;5216600;28;20715;-59
2021/04/23 06:48:41;;;;;;;11.63;6.70;;;10.70;89.20;;;13.89;38.38;98815.44;5223079;28;20232;-61
2021/04/23 06:51:14;;;;;;;8.00;6.32;;;10.90;88.20;;;14.13;39.05;98809.94;5229658;28;20679;-60
2021/04/23 06:53:46;;;;;;;9.95;6.90;;;11.20;87.90;;;14.33;37.44;98808.53;5214341;28;20198;-60
2021/04/23 06:56:18;;;;;;;8.27;6.50;;;11.30;85.20;;;14.40;37.26;98814.13;5224703;28;20225;-60
2021/04/23 06:58:51;;;;;;;10.27;6.50;;;11.40;86.10;;;14.57;37.06;98811.69;5223100;28;20189;-60
2021/04/23 07:01:23;;;;;;;9.95;6.63;;;11.80;84.40;;;14.57;37.12;98817.69;5224222;28;20203;-61
2021/04/23 07:03:58;;;;;;;7.93;6.85;;;11.80;84.60;;;14.54;36.25;98809.81;5227175;28;20321;-61
2021/04/23 07:06:30;;;;;;;8.98;5.88;;;11.90;82.80;;;15.13;34.65;98813.03;5227375;28;20243;-60
2021/04/23 07:09:02;;;;;;;10.20;5.78;;;12.80;79.40;;;15.23;35.20;98811.06;5229965;28;20197;-61
2021/04/23 07:11:35;;;;;;;9.35;6.03;;;12.50;80.30;;;14.15;37.58;98809.25;5228096;28;20212;-59
2021/04/23 07:14:08;;;;;;;8.38;6.30;;;12.10;82.30;;;15.01;36.89;98811.56;5228375;28;20190;-60
2021/04/23 07:16:40;;;;;;;9.82;6.47;;;12.00;84.40;;;15.77;34.77;98809.66;5227627;28;20203;-61
2021/04/23 07:19:12;;;;;;;9.57;5.88;;;12.70;81.40;;;15.95;34.19;98809.72;5228775;28;20638;-61
2021/04/23 07:21:44;;;;;;;9.88;6.25;;;12.90;80.10;;;16.42;33.74;98800.00;5227348;28;20720;-61
2021/04/23 07:24:16;;;;;;;11.80;6.35;;;13.20;80.20;;;16.81;33.51;98800.22;5231071;28;20718;-61
2021/04/23 07:26:49;;;;;;;7.88;5.55;;;13.40;80.60;;;17.22;32.11;98806.41;5221037;28;20294;-61
2021/04/23 07:29:22;;;;;;;7.78;5.90;;;13.80;78.50;;;17.43;32.22;98810.00;5217252;28;20476;-61
2021/04/23 07:31:54;;;;;;;8.57;6.15;;;14.10;77.50;;;17.61;31.78;98814.22;5220279;28;20229;-61
2021/04/23 07:34:26;;;;;;;9.43;6.32;;;14.00;77.40;;;18.08;31.85;98811.13;5226343;28;20248;-61
2021/04/23 07:36:58;;;;;;;8.57;5.60;;;14.10;78.00;;;18.00;30.84;98805.66;5226227;28;20911;-61
2021/04/23 07:39:34;;;;;;;7.70;5.15;;;14.00;77.60;;;17.90;31.11;98812.94;5225543;28;20564;-60
2021/04/23 07:42:06;;;;;;;8.75;5.15;;;14.20;76.70;;;17.81;30.65;98807.38;5227079;28;20197;-61
2021/04/23 07:44:39;;;;;;;9.65;5.20;;;14.40;74.90;;;17.75;31.00;98803.66;5221002;28;20267;-61
2021/04/23 07:47:11;;;;;;;7.03;5.45;;;14.90;72.80;;;17.56;31.12;98801.06;5226840;28;20221;-61
2021/04/23 07:49:46;;;;;;;8.38;5.05;;;15.10;71.10;;;17.17;31.07;98800.16;5225758;28;20209;-61
2021/04/23 07:52:23;;;;;;;8.90;4.93;;;15.00;72.00;;;16.89;32.50;98793.72;5222451;28;20208;-62
2021/04/23 07:54:57;;;;;;;9.50;4.43;;;14.60;74.60;;;16.92;31.54;98804.19;5224934;28;20228;-59
2021/04/23 07:57:29;;;;;;;8.88;4.45;;;14.90;70.50;;;17.25;29.93;98803.97;5222065;28;20194;-60
2021/04/23 08:00:05;;;;;;;8.52;4.63;;;15.30;67.90;;;17.33;30.52;98802.63;5217066;28;20695;-62
2021/04/23 08:02:38;;;;;;;8.25;4.78;;;15.40;68.10;;;17.31;30.44;98799.06;5223460;28;20228;-61
2021/04/23 08:05:14;;;;;;;8.48;5.18;;;15.70;68.00;;;17.54;30.85;98797.53;5224960;28;20236;-61
2021/04/23 08:08:07;;;;;;;8.82;5.60;;;15.80;69.50;;;17.51;29.73;98797.41;5225006;28;20221;-62
2021/04/23 08:10:39;;;;;;;11.45;5.90;;;16.00;67.10;;;17.41;30.98;98801.28;5224307;28;20209;-62
2021/04/23 08:13:11;;;;;;;9.27;5.72;;;15.80;68.80;;;17.67;29.71;98801.56;5224117;28;20201;-62
2021/04/23 08:15:45;;;;;;;8.68;5.97;;;15.90;66.50;;;17.84;29.74;98800.63;5220710;28;20591;-61
2021/04/23 08:18:20;;;;;;;9.75;6.00;;;16.30;66.10;;;17.90;29.70;98793.13;5220231;28;20189;-61
2021/04/23 08:20:52;;;;;;;7.93;6.13;;;16.50;65.50;;;17.96;29.61;98793.38;5225381;28;20196;-62
2021/04/23 08:23:25;;;;;;;11.63;6.22;;;17.00;64.20;;;17.72;30.36;98792.31;5219091;28;20284;-62
2021/04/23 08:25:58;;;;;;;6.63;5.70;;;16.80;65.30;;;17.81;30.78;98800.50;5224752;28;20213;-62
2021/04/23 08:28:31;;;;;;;9.48;5.72;;;16.60;66.70;;;17.72;30.33;98792.31;5218188;28;20233;-61
2021/04/23 08:31:04;;;;;;;8.57;6.25;;;16.30;66.30;;;17.63;30.21;98802.25;5211395;28;20198;-61
2021/04/23 08:33:36;;;;;;;7.15;6.28;;;16.20;66.90;;;17.68;30.34;98800.72;5211982;28;20201;-62
2021/04/23 08:36:09;;;;;;;9.15;5.93;;;16.20;66.60;;;17.71;31.04;98798.28;5226291;28;20236;-60
2021/04/23 08:38:41;;;;;;;11.35;6.32;;;16.20;66.80;;;17.67;30.47;98793.81;5225200;28;20199;-62
2021/04/23 08:41:13;;;;;;;10.50;6.18;;;16.30;65.80;;;17.56;30.36;98795.91;5224609;28;20582;-62
2021/04/23 08:43:46;;;;;;;7.18;5.63;;;16.20;66.30;;;17.63;31.29;98797.09;5219287;28;20289;-61
2021/04/23 08:46:19;;;;;;;8.82;6.03;;;16.50;66.70;;;17.77;31.20;98785.66;5225854;28;20297;-62
2021/04/23 08:48:54;;;;;;;9.23;6.38;;;16.50;67.70;;;17.86;30.72;98782.59;5225071;28;20700;-62
2021/04/23 08:51:27;;;;;;;7.72;5.72;;;16.60;66.60;;;17.94;31.58;98778.63;5226231;28;20197;-61
2021/04/23 08:54:00;;;;;;;9.90;5.90;;;16.70;67.70;;;18.01;31.39;98785.84;5235951;22;20197;-63
2021/04/23 08:56:32;;;;;;;8.38;5.82;;;16.90;66.80;;;17.77;30.48;98793.41;5250091;28;20300;-62
2021/04/23 08:59:04;;;;;;;8.88;6.20;;;16.40;66.00;;;17.83;31.54;98785.94;5250578;28;20188;-63
2021/04/23 09:01:37;;;;;;;9.48;5.80;;;16.70;67.90;;;17.95;30.63;98789.03;5245052;28;20200;-62
2021/04/23 09:04:11;;;;;;;8.07;5.85;;;17.00;66.10;;;17.96;30.64;98788.22;5248486;28;20227;-62
2021/04/23 09:06:43;;;;;;;10.93;6.03;;;16.90;65.30;;;17.97;30.57;98789.09;5238476;28;20204;-62
2021/04/23 09:09:15;;;;;;;7.93;5.85;;;16.90;65.40;;;17.94;30.85;98784.72;5230426;28;20218;-62
2021/04/23 09:11:49;;;;;;;10.35;7.07;;;17.00;66.00;;;17.86;30.55;98786.06;5237578;28;20199;-62
2021/04/23 09:14:26;;;;;;;7.97;5.60;;;17.00;65.60;;;17.82;30.20;98786.75;5232560;28;20214;-62
2021/04/23 09:17:00;;;;;;;11.05;5.97;;;17.00;65.00;;;17.79;31.24;98784.03;5237847;28;20639;-62
2021/04/23 09:19:36;;;;;;;10.38;6.28;;;16.90;66.20;;;18.04;30.66;98785.09;5228141;28;20295;-62
2021/04/23 09:22:20;;;;;;;7.00;5.72;;;17.20;64.40;;;18.11;30.82;98777.63;5236911;28;20275;-62
2021/04/23 09:25:12;;;;;;;8.65;5.50;;;17.40;65.10;;;18.20;30.58;98787.50;5243309;28;20295;-62
2021/04/23 09:27:50;;;;;;;10.75;6.20;;;17.40;64.70;;;18.02;29.49;98787.59;5226596;28;20225;-62
2021/04/23 09:30:28;;;;;;;8.07;5.90;;;17.10;63.30;;;18.00;30.79;98777.19;5230707;28;20580;-62
2021/04/23 09:33:02;;;;;;;9.00;5.93;;;16.80;65.40;;;18.03;30.90;98781.63;5241699;28;20233;-62
2021/04/23 09:35:36;;;;;;;9.20;5.72;;;17.00;65.60;;;18.20;31.00;98783.22;5238838;28;20216;-62
2021/04/23 09:38:18;;;;;;;10.05;5.72;;;17.30;65.80;;;18.35;30.03;98780.38;5234408;28;20235;-63
2021/04/23 09:40:50;;;;;;;8.70;5.78;;;17.50;63.10;;;18.25;29.41;98783.38;5237461;28;20451;-62
2021/04/23 09:43:36;;;;;;;10.10;6.15;;;17.40;63.10;;;17.84;29.51;98787.69;5245105;28;20672;-62
2021/04/23 09:46:08;;;;;;;8.00;5.47;;;17.00;62.70;;;17.81;29.98;98782.41;5237709;28;20213;-62
2021/04/23 09:48:41;;;;;;;9.50;6.00;;;16.90;63.60;;;17.90;30.41;98781.91;5229996;28;20217;-62
2021/04/23 09:51:19;;;;;;;7.60;5.90;;;17.20;63.70;;;17.77;30.59;98788.22;5233903;28;20571;-62
2021/04/23 09:53:51;;;;;;;9.93;6.07;;;16.90;63.60;;;17.72;29.47;98782.84;5240242;28;20622;-62
2021/04/23 09:56:33;;;;;;;11.50;6.43;;;17.20;61.70;;;17.58;30.53;98780.47;5239415;28;20201;-62
2021/04/23 09:59:22;;;;;;;8.60;6.18;;;16.80;64.00;;;17.65;30.49;98778.22;5242179;28;20601;-62
2021/04/23 10:01:57;;;;;;;7.85;5.70;;;16.90;63.80;;;17.62;31.05;98779.78;5247660;28;20201;-63
2021/04/23 10:04:33;;;;;;;7.85;5.85;;;17.00;64.70;;;17.78;30.22;98771.91;5246580;28;20227;-62
2021/04/23 10:07:21;;;;;;;8.63;5.57;;;17.10;63.90;;;17.78;30.11;98769.34;5243401;28;20296;-62
2021/04/23 10:09:57;;;;;;;10.00;5.80;;;17.00;63.70;;;17.91;29.59;98768.16;5230145;28;20577;-62
2021/04/23 10:12:36;;;;;;;7.05;5.90;;;17.20;62.70;;;17.90;29.78;98762.09;5242947;28;20202;-62
2021/04/23 10:15:17;;;;;;;8.82;5.38;;;17.20;62.20;;;17.84;30.32;98767.00;5247085;28;20715;-60
2021/04/23 10:17:52;;;;;;;9.85;6.20;;;17.00;63.20;;;17.89;30.73;98772.41;5244366;28;20188;-58
2021/04/23 10:20:27;;;;;;;9.15;5.95;;;17.20;64.60;;;17.94;29.83;98774.34;5247025;28;20202;-63
2021/04/23 10:23:02;;;;;;;8.85;5.57;;;16.80;63.00;;;17.69;30.21;98771.50;5232196;28;20196;-64
2021/04/23 10:25:36;;;;;;;7.78;5.80;;;16.70;63.80;;;17.66;29.16;98772.25;5238082;28;20585;-58
2021/04/23 10:28:12;;;;;;;8.15;5.50;;;16.70;61.90;;;17.71;29.61;98769.84;5243707;28;20219;-62
2021/04/23 10:30:47;;;;;;;10.27;5.45;;;16.80;62.70;;;17.68;29.44;98764.53;5226402;28;20208;-62
2021/04/23 10:33:22;;;;;;;7.82;5.40;;;16.70;61.80;;;17.76;29.73;98755.41;5234538;28;20582;-62
2021/04/23 10:35:58;;;;;;;6.10;4.97;;;17.00;62.40;;;17.94;27.84;98761.41;5245839;28;20247;-63
2021/04/23 10:38:34;;;;;;;7.50;5.43;;;17.30;59.50;;;17.78;28.55;98764.16;5244645;28;20293;-62
2021/04/23 10:41:10;;;;;;;8.10;5.80;;;17.40;59.40;;;17.41;29.10;98775.44;5244571;28;20200;-62
2021/04/23 10:43:52;;;;;;;10.23;6.03;;;16.90;59.80;;;17.42;29.39;98763.38;5230243;28;20679;-61
2021/04/23 10:46:24;;;;;;;5.95;4.85;;;16.80;60.60;;;17.33;29.72;98758.69;5227977;28;20197;-63
2021/04/23 10:49:06;;;;;;;6.95;5.80;;;16.60;62.20;;;17.40;29.53;98768.50;5230171;28;20223;-61
2021/04/23 10:51:39;;;;;;;6.15;4.78;;;16.90;61.50;;;17.57;29.60;98756.34;5240560;28;20189;-63
2021/04/23 10:54:14;;;;;;;6.70;4.75;;;17.00;60.20;;;17.62;28.54;98761.69;5237546;28;20222;-62
2021/04/23 10:56:52;;;;;;;7.90;5.10;;;17.10;59.40;;;17.87;28.28;98756.78;5243110;28;20188;-62